Impacts TAF Board INFO
FOR SITUATIONAL AWARENESS. NOT TO BE USED FOR FLIGHT PLANNING PURPOSES.
IDs:

KMDW - Chicago/Midway Intl, IL, US

Issued at 0520 UTC 16 Dec 2017
Updated at 0702 UTC 16 Dec 2017
Potential Impact None Slight Moderate High
Time0653Z 16/08Z 16/09Z 16/10Z 16/11Z 16/12Z 16/13Z 16/14Z 16/15Z 16/16Z 16/17Z 16/18Z 16/19Z 16/20Z>>
Type OBS PRVL PRVL PRVL PRVL PRVL PRVL PRVL PRVL PRVL PRVL PRVL PRVL PRVL
VIS 10 >6 >6 >6 >6 >6 >6 >6 >6 >6 >6 >6 >6 >6
CIG 70 90 90 90 90 90 90 90 90 90 90 90 90 90
Cover OVC BKN BKN BKN BKN BKN BKN BKN BKN BKN BKN BKN BKN BKN
FltCat VFR VFR VFR VFR VFR VFR VFR VFR VFR VFR VFR VFR VFR VFR
WX -- -- -- -- -- -- -- -- -- -- -- -- -- --
WDir 220 220 220 220 220 220 220 220 220 220 220 220 220 220
WSpd 12 8 8 8 8 8 8 8 8 8 8 8 8 8
WGst -- -- -- -- -- -- -- -- -- -- -- -- -- --

Raw TAF
KMDW 160520Z 1606/1712 22008KT P6SM BKN090
  FM162200 10005KT P6SM SCT200


Raw METAR
KMDW 160653Z 22012KT 10SM BKN070 OVC090 03/M06 A2989 RMK AO2 SLP130 T00331061
KMDW 160553Z 23011KT 10SM OVC095 03/M06 A2989 RMK AO2 SLP131 60000 T00331061 10033 20011 400331061 56009
KMDW 160453Z 22011KT 10SM FEW065 OVC090 03/M06 A2990 RMK AO2 SLP134 T00331056

METAR Board
Radar Display
Forecast Discussion

FOR SITUATIONAL AWARENESS. NOT TO BE USED FOR FLIGHT PLANNING PURPOSES.